Glencoe, Arkansas
Current Conditions -  °F | °C
As of 8:15 AM on Tuesday 21 Oct 2014 (Local Time) from KBVX Reporting Station
Clear Clear  
Wind Chill: 55°   Ceiling: Unl
Heat Index: 55°   Visibility: 3mi
Dew Point: 55°   Wind: 3mph
Humidity: 100%   Direction: 280°W
Pressure: 30.12"   Gusts: NA
Location:  36.29°N, 91.75°W
Report Text: KBVX 211315Z AUTO 28003KT 3SM CLR 13/13 A3012 RMK AO1
Loading
Personal Weather Stations






























Interactive Weather Map
Tropical Storm Tracking
New forecast layout! Learn more

10-Day Weather Forecast

Advertisements
Track Severe Weather on mobile